sim
Sign-in with your pilot id or email,
or register
Callsign
Passwort

Schedule Details

Flight Number: OEO6745
Departure: New York Newark Liberty International Airport (KEWR) at 00:30
Arrival: Munich Airport (EDDM) at 08:40

Weather Information
Getting current METAR information for KEWR 201551Z 04014G22KT 10SM FEW050 FEW090 BKN180 BKN250 16/M02 A3054 RMK AO2 SLP341 T01611017 $
Getting current METAR information for EDDM 201620Z 04004KT CAVOK 21/11 Q1015 NOSIG

Schedule Frequency

Route Map